Flight Track Log - Related Links

Times and Time Zones

All times are in EDT time to prevent confusion due to time zone crossing. See the QXE2110 flight status page for this flight to view local times or setup timezone preferences in your user account.

Time Position Orientation Groundspeed Altitude Reporting Facility
EDT Latitude Longitude Course Direction KTS MPH feet Rate Location/Type
Wed 01:10:44 PM 47.2597 -121.5119 117° Southeast 292 336 16,300  Level Seattle Center
Wed 01:11:45 PM 47.2150 -121.4092 123° Southeast 297 342 17,100 443 Climbing Seattle Center
Wed 01:12:46 PM 47.1686 -121.2942 121° Southeast 327 376 17,200  Climbing Seattle Center
Wed 01:13:47 PM 47.1281 -121.1894 120° Southeast 338 389 17,100 -49 Descending Seattle Center
Wed 01:14:48 PM 47.0797 -121.0678 120° Southeast 347 399 17,100 49 Level Seattle Center
Wed 01:15:49 PM 47.0244 -120.9350 121° Southeast 348 400 17,200 -49 Climbing Seattle Center
Wed 01:16:00 PM 46.9728 -120.9806 117° Southeast  Level Estimated
Wed 01:16:50 PM 46.9753 -120.8128 120° Southeast 349 402 17,000  Level Seattle Center
Wed 01:17:51 PM 46.9256 -120.6903 121° Southeast 351 404 16,900 -49 Descending Seattle Center
Wed 01:18:52 PM 46.8761 -120.5681 121° Southeast 352 405 16,900 49 Level Seattle Center
Wed 01:19:53 PM 46.8253 -120.4469 121° Southeast 350 403 17,000 49 Climbing Seattle Center
Wed 01:20:54 PM 46.7750 -120.3250 121° Southeast 352 405 17,000  Level Seattle Center
Wed 01:21:55 PM 46.7142 -120.1783 121° Southeast 352 405 17,000  Level Seattle Center
Wed 01:22:56 PM 46.6633 -120.0567 121° Southeast 352 405 17,000 -148 Level Seattle Center
Wed 01:23:57 PM 46.6125 -119.9358 121° Southeast 352 405 16,700 -1,328 Descending Seattle Center
Wed 01:24:58 PM 46.5650 -119.8211 121° Southeast 335 386 14,300 -2,311 Descending Seattle Center
Wed 01:25:59 PM 46.5356 -119.7086 111° Southeast 305 351 12,000 -2,262 Descending Seattle Center
Wed 01:27:00 PM 46.5081 -119.6003 110° East 290 334 9,700 -2,115 Descending Seattle Center
Wed 01:28:01 PM 46.4814 -119.4947 110° East 281 323 7,700 -1,983 Descending Seattle Center
Wed 01:29:01 PM 46.4561 -119.3939 110° East 270 311 5,700 -1,686 Descending Seattle Center
Wed 01:30:02 PM 46.4325 -119.2958 109° East 262 302 4,300 -1,033 Descending Seattle Center
Wed 01:31:03 PM 46.4081 -119.2011 110° East 254 292 3,600 -738 Descending Seattle Center
Wed 01:32:04 PM 46.3725 -119.1158 121° Southeast 247 284 2,800 -738 Descending Seattle Center
Wed 01:33:05 PM 46.3358 -119.0567 132° Southeast 211 243 2,100 -492 Descending Seattle Center
Wed 01:34:06 PM 46.2850 -119.0528 177° South 192 221 1,800 -295 Descending Seattle Center

Login

Don't have an account? Register now (free) for customized features, flight alerts, and more!